createdAt,value
2019-02-23T00:04:50.720Z,8.30
2019-02-23T00:10:57.319Z,8.27
2019-02-23T00:17:03.086Z,8.22
2019-02-23T00:23:08.942Z,8.20
2019-02-23T00:29:14.965Z,8.13
2019-02-23T00:35:21.329Z,8.03
2019-02-23T00:41:27.080Z,7.89
2019-02-23T00:47:33.138Z,7.81
2019-02-23T00:53:38.969Z,7.76
2019-02-23T00:59:44.726Z,7.75
2019-02-23T01:05:50.640Z,7.70
2019-02-23T01:11:56.552Z,7.66
2019-02-23T01:18:02.565Z,7.64
2019-02-23T01:24:08.509Z,7.61
2019-02-23T01:30:15.068Z,7.56
2019-02-23T01:36:20.886Z,7.52
2019-02-23T01:42:27.041Z,7.48
2019-02-23T01:48:32.935Z,7.43
2019-02-23T01:54:38.924Z,7.42
2019-02-23T02:00:44.677Z,7.35
2019-02-23T02:06:50.602Z,7.31
2019-02-23T02:12:56.565Z,7.23
2019-02-23T02:19:02.694Z,7.17
2019-02-23T02:25:09.310Z,7.06
2019-02-23T02:31:15.345Z,6.96
2019-02-23T02:37:21.621Z,6.92
2019-02-23T02:43:27.516Z,6.76
2019-02-23T02:49:33.630Z,6.64
2019-02-23T02:55:39.531Z,6.60
2019-02-23T03:01:45.695Z,6.62
2019-02-23T03:07:51.505Z,6.54
2019-02-23T03:13:57.284Z,6.48
2019-02-23T03:20:03.256Z,6.41
2019-02-23T03:26:09.405Z,6.13
2019-02-23T03:32:15.450Z,5.74
2019-02-23T03:38:21.332Z,5.61
2019-02-23T03:44:27.213Z,5.45
2019-02-23T03:50:32.969Z,5.29
2019-02-23T03:56:39.258Z,5.25
2019-02-23T04:02:45.082Z,5.24
2019-02-23T04:08:50.979Z,5.21
2019-02-23T04:14:56.872Z,5.11
2019-02-23T04:21:02.797Z,4.99
2019-02-23T04:27:09.062Z,4.98
2019-02-23T04:33:14.805Z,4.97
2019-02-23T04:39:20.543Z,4.98
2019-02-23T04:45:26.378Z,4.85
2019-02-23T04:51:32.244Z,4.91
2019-02-23T04:57:38.064Z,4.93
2019-02-23T05:03:46.283Z,4.80
2019-02-23T05:09:52.050Z,4.62
2019-02-23T05:15:57.822Z,4.48
2019-02-23T05:22:03.681Z,4.39
2019-02-23T05:28:09.867Z,4.44
2019-02-23T05:34:15.901Z,4.12
2019-02-23T05:40:21.692Z,4.02
2019-02-23T05:46:27.884Z,3.72
2019-02-23T05:52:34.107Z,3.65
2019-02-23T05:58:40.121Z,3.72
2019-02-23T06:04:46.692Z,3.76
2019-02-23T06:10:53.284Z,3.77
2019-02-23T06:16:59.112Z,3.65
2019-02-23T06:23:05.613Z,3.68
2019-02-23T06:29:11.592Z,3.77
2019-02-23T06:35:18.057Z,3.86
2019-02-23T06:41:24.412Z,3.90
2019-02-23T06:47:32.074Z,3.81
2019-02-23T06:53:38.175Z,3.86
2019-02-23T06:59:44.369Z,3.99
2019-02-23T07:05:50.938Z,4.05
2019-02-23T07:11:56.829Z,4.06
2019-02-23T07:18:03.179Z,4.00
2019-02-23T07:24:09.722Z,4.01
2019-02-23T07:30:15.746Z,4.07
2019-02-23T07:36:21.646Z,4.11
2019-02-23T07:42:27.862Z,4.14
2019-02-23T07:48:34.060Z,4.24
2019-02-23T07:54:39.927Z,4.37
2019-02-23T08:00:45.726Z,4.55
2019-02-23T08:06:51.919Z,4.67
2019-02-23T08:12:58.451Z,4.64
2019-02-23T08:19:04.699Z,4.61
2019-02-23T08:25:11.418Z,4.68
2019-02-23T08:31:22.011Z,4.77
2019-02-23T08:37:28.219Z,4.84
2019-02-23T08:43:34.605Z,5.01
2019-02-23T08:49:40.466Z,5.20
2019-02-23T08:55:47.151Z,5.53
2019-02-23T09:01:53.342Z,5.78
2019-02-23T09:07:59.355Z,6.00
2019-02-23T09:14:05.167Z,6.19
2019-02-23T09:20:12.146Z,6.40
2019-02-23T09:26:18.381Z,6.59
2019-02-23T09:32:24.468Z,6.79
2019-02-23T09:38:30.567Z,6.97
2019-02-23T09:44:36.753Z,7.16
2019-02-23T09:50:42.527Z,7.32
2019-02-23T09:56:48.413Z,7.47
2019-02-23T10:02:54.372Z,7.60
2019-02-23T10:09:00.152Z,7.73
2019-02-23T10:15:06.769Z,7.89
2019-02-23T10:21:12.637Z,8.02
2019-02-23T10:27:18.831Z,8.10
2019-02-23T10:33:24.770Z,8.27
2019-02-23T10:39:30.915Z,8.47
2019-02-23T10:45:36.955Z,8.66
2019-02-23T10:51:42.838Z,8.85
2019-02-23T10:57:48.834Z,9.04
2019-02-23T11:03:54.603Z,9.18
2019-02-23T11:10:00.449Z,9.34
2019-02-23T11:16:06.368Z,9.51
2019-02-23T11:22:12.542Z,9.74
2019-02-23T11:28:18.627Z,10.00
2019-02-23T11:34:24.853Z,10.30
2019-02-23T11:40:30.878Z,10.55
2019-02-23T11:46:36.777Z,10.73
2019-02-23T11:52:43.751Z,10.94
2019-02-23T11:58:49.710Z,11.11
2019-02-23T12:04:55.493Z,11.27
2019-02-23T12:11:01.282Z,11.39
2019-02-23T12:17:07.073Z,11.50
2019-02-23T12:23:12.813Z,11.60
2019-02-23T12:29:18.705Z,11.68
2019-02-23T12:35:24.523Z,11.76
2019-02-23T12:41:30.399Z,11.86
2019-02-23T12:47:36.534Z,11.99
2019-02-23T12:53:42.384Z,12.14
2019-02-23T12:59:48.185Z,12.33
2019-02-23T13:05:53.983Z,12.44
2019-02-23T13:12:29.781Z,12.60
2019-02-23T13:19:30.957Z,12.68
2019-02-23T13:25:56.085Z,12.79
2019-02-23T13:32:49.554Z,12.82
2019-02-23T13:39:29.791Z,12.76
2019-02-23T13:46:12.535Z,12.72
2019-02-23T13:53:27.195Z,12.75
2019-02-23T14:00:16.404Z,12.89
2019-02-23T14:07:10.323Z,13.08
2019-02-23T14:14:17.978Z,13.18
2019-02-23T14:21:18.365Z,13.23
2019-02-23T14:28:27.658Z,13.32
2019-02-23T14:35:49.961Z,13.34
2019-02-23T14:42:32.553Z,13.44
2019-02-23T14:49:08.266Z,13.56
2019-02-23T14:56:08.494Z,13.61
2019-02-23T15:02:58.958Z,13.63
2019-02-23T15:09:49.379Z,13.60
2019-02-23T15:17:25.120Z,13.55
2019-02-23T15:24:05.625Z,13.48
2019-02-23T15:31:00.422Z,13.45
2019-02-23T15:38:16.406Z,13.59
2019-02-23T15:45:20.827Z,13.71
2019-02-23T15:51:26.720Z,13.81
2019-02-23T15:57:32.576Z,14.00
2019-02-23T16:03:38.368Z,14.18
2019-02-23T16:09:44.369Z,13.96
2019-02-23T16:15:50.258Z,13.50
2019-02-23T16:21:56.099Z,13.11
2019-02-23T16:28:02.163Z,12.84
2019-02-23T16:34:08.082Z,12.61
2019-02-23T16:40:14.327Z,12.40
2019-02-23T16:46:20.078Z,12.22
2019-02-23T16:52:26.279Z,12.03
2019-02-23T16:58:32.204Z,11.83
2019-02-23T17:04:38.352Z,11.68
2019-02-23T17:10:44.620Z,11.35
2019-02-23T17:16:50.379Z,11.16
2019-02-23T17:22:56.202Z,10.99
2019-02-23T17:29:02.084Z,10.77
2019-02-23T17:35:08.578Z,10.46
2019-02-23T17:41:14.479Z,10.17
2019-02-23T17:47:20.475Z,10.05
2019-02-23T17:53:26.926Z,9.95
2019-02-23T17:59:32.770Z,9.83
2019-02-23T18:05:38.728Z,9.72
2019-02-23T18:11:44.642Z,9.54
2019-02-23T18:17:50.740Z,9.39
2019-02-23T18:23:56.700Z,9.28
2019-02-23T18:30:10.690Z,9.22
2019-02-23T18:36:10.183Z,8.97
2019-02-23T18:42:16.345Z,8.79
2019-02-23T18:48:22.744Z,8.59
2019-02-23T18:54:28.650Z,8.42
2019-02-23T19:00:36.514Z,8.35
2019-02-23T19:06:42.488Z,8.24
2019-02-23T19:12:48.381Z,8.10
2019-02-23T19:18:55.054Z,7.97
2019-02-23T19:25:01.344Z,7.76
2019-02-23T19:31:08.163Z,7.41
2019-02-23T19:37:14.280Z,7.34
2019-02-23T19:43:20.029Z,7.23
2019-02-23T19:49:25.920Z,7.17
2019-02-23T19:55:32.676Z,7.14
2019-02-23T20:01:39.105Z,7.00
2019-02-23T20:07:45.178Z,6.73
2019-02-23T20:13:51.043Z,6.65
2019-02-23T20:19:56.944Z,6.55
2019-02-23T20:26:03.968Z,6.51
2019-02-23T20:32:09.799Z,6.46
2019-02-23T20:38:15.602Z,6.45
2019-02-23T20:44:21.415Z,6.38
2019-02-23T20:50:27.297Z,6.34
2019-02-23T20:56:33.086Z,6.36
2019-02-23T21:02:39.114Z,6.49
2019-02-23T21:08:45.015Z,6.57
2019-02-23T21:14:51.062Z,6.61
2019-02-23T21:20:57.071Z,6.71
2019-02-23T21:27:03.292Z,6.77
2019-02-23T21:33:09.209Z,6.84
2019-02-23T21:39:15.043Z,6.87
2019-02-23T21:45:20.845Z,6.89
2019-02-23T21:51:26.675Z,6.83
2019-02-23T21:57:32.510Z,6.79
2019-02-23T22:03:38.636Z,6.71
2019-02-23T22:09:44.473Z,6.76
2019-02-23T22:15:50.542Z,6.78
2019-02-23T22:21:56.465Z,6.79
2019-02-23T22:28:02.634Z,6.82
2019-02-23T22:34:08.853Z,6.79
2019-02-23T22:40:14.705Z,6.79
2019-02-23T22:46:20.745Z,6.79
2019-02-23T22:52:26.693Z,6.76
2019-02-23T22:58:32.486Z,6.77
2019-02-23T23:04:38.528Z,6.81
2019-02-23T23:10:44.781Z,6.85
2019-02-23T23:16:50.745Z,6.83
2019-02-23T23:22:56.691Z,6.81
2019-02-23T23:29:02.865Z,6.84
2019-02-23T23:35:08.894Z,6.85
2019-02-23T23:41:14.957Z,6.85
2019-02-23T23:47:21.000Z,6.88
2019-02-23T23:53:26.732Z,6.93
2019-02-23T23:59:32.810Z,6.92
